createdAt,value
2022-10-05T00:04:44.716Z,9.60
2022-10-05T00:09:48.642Z,9.68
2022-10-05T00:14:51.377Z,9.61
2022-10-05T00:19:53.856Z,9.64
2022-10-05T00:24:56.352Z,9.72
2022-10-05T00:29:58.714Z,9.76
2022-10-05T00:35:00.011Z,9.79
2022-10-05T00:40:02.052Z,9.72
2022-10-05T00:45:03.390Z,9.82
2022-10-05T00:50:04.675Z,9.87
2022-10-05T00:55:27.018Z,9.94
2022-10-05T01:00:28.500Z,9.94
2022-10-05T01:05:47.992Z,9.97
2022-10-05T01:11:03.793Z,10.06
2022-10-05T01:16:08.313Z,10.21
2022-10-05T01:21:12.756Z,10.12
2022-10-05T01:26:33.030Z,10.03
2022-10-05T01:31:34.343Z,9.85
2022-10-05T01:36:35.687Z,9.77
2022-10-05T01:41:56.095Z,9.72
2022-10-05T01:47:03.686Z,9.57
2022-10-05T01:52:23.480Z,9.42
2022-10-05T01:57:33.870Z,9.27
2022-10-05T02:02:38.451Z,8.74
2022-10-05T02:07:49.222Z,8.20
2022-10-05T02:12:53.655Z,7.80
2022-10-05T02:18:02.469Z,7.35
2022-10-05T02:23:06.046Z,7.13
2022-10-05T02:28:16.635Z,7.03
2022-10-05T02:33:23.437Z,6.97
2022-10-05T02:38:43.278Z,6.97
2022-10-05T02:44:03.977Z,7.00
2022-10-05T02:49:25.555Z,7.13
2022-10-05T02:54:50.131Z,7.06
2022-10-05T02:59:59.278Z,6.93
2022-10-05T03:05:00.631Z,6.80
2022-10-05T03:10:08.178Z,6.69
2022-10-05T03:15:27.646Z,6.67
2022-10-05T03:20:40.898Z,6.68
2022-10-05T03:26:02.456Z,6.64
2022-10-05T03:31:22.694Z,6.51
2022-10-05T03:36:31.765Z,6.42
2022-10-05T03:41:38.810Z,6.38
2022-10-05T03:46:49.905Z,6.15
2022-10-05T03:52:00.882Z,6.18
2022-10-05T03:57:07.712Z,6.13
2022-10-05T04:02:22.081Z,6.01
2022-10-05T04:07:32.409Z,5.99
2022-10-05T04:12:36.858Z,5.96
2022-10-05T04:17:40.536Z,5.98
2022-10-05T04:22:46.106Z,5.92
2022-10-05T04:27:50.901Z,5.87
2022-10-05T04:32:53.226Z,5.89
2022-10-05T04:38:06.584Z,6.51
2022-10-05T04:43:13.062Z,7.07
2022-10-05T04:48:33.214Z,7.19
2022-10-05T04:53:48.340Z,7.20
2022-10-05T04:59:01.871Z,6.86
2022-10-05T05:04:12.394Z,7.05
2022-10-05T05:09:23.664Z,6.46
2022-10-05T05:14:43.976Z,6.25
2022-10-05T05:20:11.425Z,6.13
2022-10-05T05:25:30.850Z,6.07
2022-10-05T05:30:58.681Z,6.06
2022-10-05T05:36:06.249Z,5.90
2022-10-05T05:41:22.536Z,5.87
2022-10-05T05:46:39.120Z,5.88
2022-10-05T05:51:52.329Z,5.82
2022-10-05T05:57:10.834Z,5.89
2022-10-05T06:02:15.449Z,6.08
2022-10-05T06:07:20.012Z,6.21
2022-10-05T06:12:22.810Z,6.44
2022-10-05T06:17:26.831Z,6.52
2022-10-05T06:22:32.996Z,6.92
2022-10-05T06:27:38.254Z,7.38
2022-10-05T06:33:01.282Z,7.42
2022-10-05T06:38:14.998Z,9.33
2022-10-05T06:43:31.136Z,11.76
2022-10-05T06:48:51.181Z,11.39
2022-10-05T06:54:00.870Z,13.25
2022-10-05T06:59:09.704Z,12.22
2022-10-05T07:04:11.038Z,11.73
2022-10-05T07:09:30.507Z,11.68
2022-10-05T07:14:58.402Z,11.92
2022-10-05T07:20:15.081Z,12.59
2022-10-05T07:25:21.062Z,12.64
2022-10-05T07:30:22.500Z,13.94
2022-10-05T07:36:03.577Z,14.62
2022-10-05T07:41:10.947Z,14.49
2022-10-05T07:46:18.268Z,15.15
2022-10-05T07:51:29.187Z,15.14
2022-10-05T07:56:36.596Z,16.53
2022-10-05T08:01:41.063Z,16.85
2022-10-05T08:06:45.919Z,17.42
2022-10-05T08:11:53.303Z,17.11
2022-10-05T08:16:57.674Z,17.68
2022-10-05T08:22:02.917Z,17.76
2022-10-05T08:27:23.085Z,18.12
2022-10-05T08:32:29.485Z,18.40
2022-10-05T08:37:35.775Z,18.47
2022-10-05T08:42:44.573Z,18.66
2022-10-05T08:48:04.762Z,19.59
2022-10-05T08:53:21.924Z,18.79
2022-10-05T08:58:36.541Z,18.96
2022-10-05T09:03:37.834Z,19.48
2022-10-05T09:08:47.902Z,20.14
2022-10-05T09:14:12.510Z,20.99
2022-10-05T09:19:32.705Z,20.75
2022-10-05T09:24:49.359Z,19.51
2022-10-05T09:30:02.535Z,20.73
2022-10-05T09:35:21.030Z,21.03
2022-10-05T09:40:41.504Z,20.98
2022-10-05T09:46:01.890Z,21.44
2022-10-05T09:51:16.836Z,21.45
2022-10-05T09:56:21.094Z,22.29
2022-10-05T10:01:51.620Z,22.71
2022-10-05T10:06:56.402Z,21.82
2022-10-05T10:12:16.539Z,23.43
2022-10-05T10:17:17.837Z,24.74
2022-10-05T10:22:50.065Z,24.32
2022-10-05T10:27:57.247Z,23.88
2022-10-05T10:33:11.249Z,24.40
2022-10-05T10:38:30.965Z,24.52
2022-10-05T10:43:35.409Z,24.16
2022-10-05T10:48:55.571Z,24.65
2022-10-05T10:54:15.667Z,24.37
2022-10-05T10:59:29.257Z,24.58
2022-10-05T11:04:35.734Z,24.71
2022-10-05T11:10:12.375Z,24.87
2022-10-05T11:15:25.500Z,26.03
2022-10-05T11:20:56.080Z,24.95
2022-10-05T11:26:12.264Z,24.77
2022-10-05T11:31:42.962Z,23.75
2022-10-05T11:36:55.566Z,23.89
2022-10-05T11:42:19.892Z,24.04
2022-10-05T11:47:35.506Z,24.38
2022-10-05T11:52:39.680Z,23.83
2022-10-05T11:57:52.797Z,23.72
2022-10-05T12:03:06.917Z,23.66
2022-10-05T12:08:24.088Z,22.68
2022-10-05T12:13:34.479Z,23.47
2022-10-05T12:18:39.247Z,23.49
2022-10-05T12:23:50.404Z,23.79
2022-10-05T12:28:55.520Z,23.75
2022-10-05T12:33:56.811Z,22.75
2022-10-05T12:39:18.357Z,23.11
2022-10-05T12:44:39.714Z,22.89
2022-10-05T12:50:13.424Z,22.75
2022-10-05T12:55:26.125Z,22.29
2022-10-05T13:00:32.017Z,21.89
2022-10-05T13:05:44.823Z,21.68
2022-10-05T13:10:48.282Z,21.76
2022-10-05T13:15:52.335Z,21.56
2022-10-05T13:20:56.464Z,21.27
2022-10-05T13:26:08.869Z,21.52
2022-10-05T13:31:18.550Z,21.67
2022-10-05T13:36:35.487Z,22.03
2022-10-05T13:41:55.637Z,21.65
2022-10-05T13:47:16.859Z,22.15
2022-10-05T13:52:29.235Z,21.28
2022-10-05T13:58:05.769Z,21.76
2022-10-05T14:03:22.870Z,21.43
2022-10-05T14:08:32.899Z,21.05
2022-10-05T14:13:44.446Z,20.94
2022-10-05T14:18:58.962Z,20.50
2022-10-05T14:24:32.257Z,20.52
2022-10-05T14:29:39.383Z,20.11
2022-10-05T14:34:45.063Z,19.78
2022-10-05T14:39:48.347Z,19.51
2022-10-05T14:45:00.164Z,19.51
2022-10-05T14:50:13.880Z,19.48
2022-10-05T14:55:26.208Z,19.44
2022-10-05T15:00:28.809Z,19.45
2022-10-05T15:05:31.490Z,19.32
2022-10-05T15:10:43.708Z,19.34
2022-10-05T15:15:54.624Z,19.28
2022-10-05T15:21:22.524Z,19.27
2022-10-05T15:26:40.319Z,19.28
2022-10-05T15:31:50.658Z,19.40
2022-10-05T15:36:51.953Z,19.38
2022-10-05T15:42:00.280Z,19.43
2022-10-05T15:47:10.332Z,19.46
2022-10-05T15:52:27.640Z,19.38
2022-10-05T15:57:41.089Z,19.48
2022-10-05T16:02:54.557Z,19.69
2022-10-05T16:08:14.605Z,19.67
2022-10-05T16:13:34.637Z,19.47
2022-10-05T16:18:51.308Z,19.19
2022-10-05T16:23:55.695Z,19.04
2022-10-05T16:29:02.595Z,18.92
2022-10-05T16:34:23.260Z,18.68
2022-10-05T16:39:27.295Z,18.56
2022-10-05T16:44:31.700Z,18.50
2022-10-05T16:49:42.506Z,18.47
2022-10-05T16:54:48.163Z,18.53
2022-10-05T16:59:55.540Z,18.58
2022-10-05T17:05:06.029Z,18.55
2022-10-05T17:10:07.316Z,18.52
2022-10-05T17:15:10.161Z,18.44
2022-10-05T17:20:23.616Z,18.41
2022-10-05T17:25:34.226Z,18.31
2022-10-05T17:30:38.995Z,17.93
2022-10-05T17:35:40.307Z,17.61
2022-10-05T17:41:03.105Z,17.38
2022-10-05T17:46:06.809Z,17.26
2022-10-05T17:51:56.005Z,17.09
2022-10-05T17:56:57.297Z,16.76
2022-10-05T18:02:19.453Z,16.67
2022-10-05T18:07:22.933Z,16.43
2022-10-05T18:12:25.943Z,16.40
2022-10-05T18:17:44.112Z,16.31
2022-10-05T18:22:46.693Z,16.28
2022-10-05T18:28:07.858Z,16.21
2022-10-05T18:33:28.072Z,16.27
2022-10-05T18:38:51.225Z,16.29
2022-10-05T18:44:00.890Z,16.38
2022-10-05T18:49:04.979Z,16.18
2022-10-05T18:54:09.400Z,15.85
2022-10-05T18:59:29.430Z,15.72
2022-10-05T19:04:30.721Z,15.70
2022-10-05T19:09:32.002Z,15.81
2022-10-05T19:14:56.554Z,15.85
2022-10-05T19:20:07.048Z,15.77
2022-10-05T19:25:08.418Z,15.65
2022-10-05T19:30:30.103Z,15.37
2022-10-05T19:35:34.517Z,15.10
2022-10-05T19:40:44.003Z,15.03
2022-10-05T19:45:54.307Z,14.71
2022-10-05T19:50:57.544Z,14.73
2022-10-05T19:56:15.643Z,14.58
2022-10-05T20:01:24.380Z,14.65
2022-10-05T20:06:26.918Z,14.62
2022-10-05T20:11:28.526Z,14.36
2022-10-05T20:16:52.746Z,14.20
2022-10-05T20:22:00.382Z,14.07
2022-10-05T20:27:04.800Z,13.94
2022-10-05T20:32:11.052Z,13.82
2022-10-05T20:37:13.505Z,13.90
2022-10-05T20:42:14.836Z,14.18
2022-10-05T20:47:16.288Z,14.40
2022-10-05T20:52:17.594Z,14.53
2022-10-05T20:57:20.865Z,14.53
2022-10-05T21:02:22.256Z,14.46
2022-10-05T21:07:25.721Z,14.37
2022-10-05T21:12:27.170Z,14.59
2022-10-05T21:17:28.513Z,14.91
2022-10-05T21:22:29.998Z,15.29
2022-10-05T21:27:31.398Z,15.41
2022-10-05T21:32:32.743Z,15.50
2022-10-05T21:37:34.080Z,15.49
2022-10-05T21:42:35.427Z,15.50
2022-10-05T21:47:36.858Z,15.70
2022-10-05T21:52:38.236Z,15.90
2022-10-05T21:57:40.515Z,16.07
2022-10-05T22:02:41.840Z,16.09
2022-10-05T22:07:43.144Z,15.99
2022-10-05T22:12:46.756Z,15.94
2022-10-05T22:17:48.262Z,15.99
2022-10-05T22:22:49.642Z,16.12
2022-10-05T22:27:51.155Z,16.19
2022-10-05T22:32:52.482Z,16.57
2022-10-05T22:37:53.783Z,16.57
2022-10-05T22:42:55.113Z,16.59
2022-10-05T22:47:56.435Z,16.51
2022-10-05T22:52:57.735Z,16.60
2022-10-05T22:57:59.043Z,16.66
2022-10-05T23:03:00.344Z,16.61
2022-10-05T23:08:02.202Z,16.77
2022-10-05T23:13:04.911Z,16.79
2022-10-05T23:18:06.222Z,16.81
2022-10-05T23:23:07.523Z,16.03
2022-10-05T23:28:08.870Z,15.14
2022-10-05T23:33:10.319Z,14.56
2022-10-05T23:38:11.621Z,14.37
2022-10-05T23:43:13.077Z,14.34
2022-10-05T23:48:14.711Z,14.35
2022-10-05T23:53:16.988Z,14.42
2022-10-05T23:58:18.691Z,14.44
